createdAt,value
2022-08-16T00:01:21.764Z,5.43
2022-08-16T00:03:53.646Z,4.87
2022-08-16T00:06:21.436Z,5.03
2022-08-16T00:08:49.533Z,5.70
2022-08-16T00:11:16.587Z,5.77
2022-08-16T00:13:53.451Z,5.83
2022-08-16T00:17:00.657Z,6.57
2022-08-16T00:19:14.909Z,6.83
2022-08-16T00:21:43.612Z,7.73
2022-08-16T00:24:12.528Z,8.50
2022-08-16T00:26:44.111Z,8.43
2022-08-16T00:29:15.388Z,7.80
2022-08-16T00:31:58.792Z,7.83
2022-08-16T00:34:45.193Z,8.63
2022-08-16T00:37:17.315Z,9.03
2022-08-16T00:39:47.239Z,9.67
2022-08-16T00:42:14.760Z,9.50
2022-08-16T00:45:08.369Z,8.80
2022-08-16T00:47:39.285Z,9.63
2022-08-16T00:50:11.441Z,9.43
2022-08-16T00:52:50.562Z,11.27
2022-08-16T00:55:22.477Z,11.17
2022-08-16T00:57:58.881Z,12.87
2022-08-16T01:00:29.811Z,13.23
2022-08-16T01:02:59.523Z,12.87
2022-08-16T01:05:27.309Z,13.23
2022-08-16T01:07:54.976Z,12.63
2022-08-16T01:10:31.307Z,11.47
2022-08-16T01:13:02.169Z,12.63
2022-08-16T01:15:31.894Z,12.70
2022-08-16T01:18:00.165Z,12.33
2022-08-16T01:20:30.587Z,12.23
2022-08-16T01:23:24.102Z,13.07
2022-08-16T01:25:59.694Z,12.50
2022-08-16T01:28:45.577Z,11.77
2022-08-16T01:31:14.541Z,13.47
2022-08-16T01:33:44.641Z,12.27
2022-08-16T01:36:13.118Z,12.70
2022-08-16T01:38:49.265Z,13.33
2022-08-16T01:41:26.556Z,12.23
2022-08-16T01:43:56.909Z,12.90
2022-08-16T01:46:39.109Z,11.73
2022-08-16T01:49:43.483Z,12.80
2022-08-16T01:52:29.619Z,12.93
2022-08-16T01:54:58.001Z,12.67
2022-08-16T01:57:27.211Z,12.10
2022-08-16T01:59:54.605Z,11.67
2022-08-16T02:02:28.357Z,12.70
2022-08-16T02:04:56.273Z,13.20
2022-08-16T02:07:24.532Z,11.87
2022-08-16T02:09:58.333Z,12.00
2022-08-16T02:12:39.770Z,11.00
2022-08-16T02:15:17.528Z,12.23
2022-08-16T02:17:52.537Z,11.17
2022-08-16T02:20:19.722Z,11.10
2022-08-16T02:22:55.171Z,11.63
2022-08-16T02:25:22.325Z,11.17
2022-08-16T02:27:51.095Z,10.47
2022-08-16T02:30:37.590Z,12.43
2022-08-16T02:33:11.365Z,11.00
2022-08-16T02:35:49.911Z,10.13
2022-08-16T02:38:21.955Z,10.50
2022-08-16T02:40:48.871Z,10.97
2022-08-16T02:43:15.937Z,12.17
2022-08-16T02:45:42.971Z,10.57
2022-08-16T02:48:29.482Z,11.13
2022-08-16T02:51:06.279Z,10.80
2022-08-16T02:53:43.107Z,10.93
2022-08-16T02:56:15.168Z,10.57
2022-08-16T02:58:44.124Z,10.27
2022-08-16T03:01:24.404Z,10.07
2022-08-16T03:04:29.816Z,9.63
2022-08-16T03:06:50.490Z,10.20
2022-08-16T03:09:22.849Z,10.67
2022-08-16T03:11:50.056Z,11.00
2022-08-16T03:14:21.187Z,11.60
2022-08-16T03:16:59.764Z,12.10
2022-08-16T03:19:48.268Z,12.27
2022-08-16T03:22:28.273Z,11.50
2022-08-16T03:24:58.985Z,10.10
2022-08-16T03:27:30.713Z,11.00
2022-08-16T03:30:16.179Z,12.03
2022-08-16T03:32:47.459Z,10.70
2022-08-16T03:35:15.085Z,10.70
2022-08-16T03:38:01.803Z,11.53
2022-08-16T03:40:32.900Z,11.60
2022-08-16T03:43:20.259Z,12.63
2022-08-16T03:45:47.034Z,12.37
2022-08-16T03:48:15.069Z,12.07
2022-08-16T03:51:00.145Z,12.40
2022-08-16T03:53:37.890Z,13.50
2022-08-16T03:56:07.342Z,14.03
2022-08-16T03:58:37.046Z,12.97
2022-08-16T04:01:05.082Z,12.80
2022-08-16T04:03:32.637Z,14.53
2022-08-16T04:05:59.940Z,13.47
2022-08-16T04:08:31.185Z,12.93
2022-08-16T04:10:58.321Z,14.20
2022-08-16T04:14:00.368Z,13.73
2022-08-16T04:16:27.580Z,12.63
2022-08-16T04:19:02.422Z,13.40
2022-08-16T04:21:32.624Z,12.17
2022-08-16T04:24:00.093Z,13.53
2022-08-16T04:26:30.591Z,12.37
2022-08-16T04:29:16.703Z,13.70
2022-08-16T04:31:47.133Z,13.33
2022-08-16T04:34:27.387Z,14.37
2022-08-16T04:36:54.929Z,13.60
2022-08-16T04:39:24.293Z,14.93
2022-08-16T04:41:57.106Z,15.77
2022-08-16T04:44:52.904Z,13.00
2022-08-16T04:47:21.640Z,13.40
2022-08-16T04:49:52.313Z,13.70
2022-08-16T04:52:35.074Z,13.47
2022-08-16T04:55:05.975Z,13.93
2022-08-16T04:57:32.637Z,13.43
2022-08-16T04:59:59.361Z,13.13
2022-08-16T05:02:49.033Z,13.47
2022-08-16T05:05:23.165Z,13.93
2022-08-16T05:07:58.357Z,12.60
2022-08-16T05:10:28.085Z,13.67
2022-08-16T05:13:00.623Z,13.10
2022-08-16T05:15:28.027Z,14.30
2022-08-16T05:17:58.854Z,15.07
2022-08-16T05:20:38.993Z,12.37
2022-08-16T05:23:15.117Z,12.73
2022-08-16T05:25:48.209Z,15.77
2022-08-16T05:28:17.369Z,14.00
2022-08-16T05:30:50.307Z,13.47
2022-08-16T05:33:18.326Z,14.27
2022-08-16T05:35:54.889Z,13.93
2022-08-16T05:38:32.407Z,14.00
2022-08-16T05:41:07.273Z,13.67
2022-08-16T05:43:43.309Z,12.97
2022-08-16T05:46:29.548Z,12.27
2022-08-16T05:49:03.721Z,13.50
2022-08-16T05:51:38.135Z,13.53
2022-08-16T05:54:07.871Z,13.53
2022-08-16T05:56:37.973Z,12.97
2022-08-16T05:59:06.123Z,14.00
2022-08-16T06:01:38.432Z,13.83
2022-08-16T06:04:13.259Z,13.97
2022-08-16T06:06:57.811Z,13.80
2022-08-16T06:09:43.758Z,12.23
2022-08-16T06:12:26.889Z,13.13
2022-08-16T06:15:04.253Z,13.43
2022-08-16T06:17:41.535Z,14.23
2022-08-16T06:20:23.975Z,13.10
2022-08-16T06:23:03.699Z,14.50
2022-08-16T06:25:52.948Z,11.50
2022-08-16T06:28:35.057Z,13.73
2022-08-16T06:31:06.703Z,13.33
2022-08-16T06:33:41.121Z,13.13
2022-08-16T06:36:09.865Z,12.27
2022-08-16T06:38:38.169Z,12.73
2022-08-16T06:41:22.198Z,12.80
2022-08-16T06:43:51.177Z,12.90
2022-08-16T06:46:31.915Z,14.23
2022-08-16T06:48:59.638Z,12.13
2022-08-16T06:51:46.612Z,13.57
2022-08-16T06:54:13.962Z,12.70
2022-08-16T06:56:42.370Z,13.63
2022-08-16T06:59:10.275Z,11.87
2022-08-16T07:01:43.124Z,12.37
2022-08-16T07:04:12.234Z,12.40
2022-08-16T07:06:43.145Z,13.33
2022-08-16T07:09:11.394Z,13.40
2022-08-16T07:11:45.526Z,13.00
2022-08-16T07:14:24.462Z,13.47
2022-08-16T07:16:54.043Z,14.60
2022-08-16T07:19:21.498Z,13.03
2022-08-16T07:21:59.319Z,13.60
2022-08-16T07:24:30.356Z,14.43
2022-08-16T07:27:00.577Z,11.50
2022-08-16T07:29:31.485Z,12.37
2022-08-16T07:32:00.672Z,12.77
2022-08-16T07:34:35.871Z,12.70
2022-08-16T07:37:10.698Z,13.70
2022-08-16T07:39:43.369Z,11.17
2022-08-16T07:42:20.086Z,10.97
2022-08-16T07:44:52.589Z,13.20
2022-08-16T07:47:20.065Z,12.90
2022-08-16T07:49:53.404Z,12.73
2022-08-16T07:52:29.845Z,13.37
2022-08-16T07:54:57.579Z,11.43
2022-08-16T07:57:24.854Z,11.97
2022-08-16T07:59:52.126Z,11.70
2022-08-16T08:02:20.396Z,11.63
2022-08-16T08:04:48.259Z,10.40
2022-08-16T08:07:16.363Z,10.43
2022-08-16T08:09:43.966Z,10.80
2022-08-16T08:12:32.640Z,11.33
2022-08-16T08:14:58.266Z,9.90
2022-08-16T08:17:43.037Z,11.27
2022-08-16T08:20:26.071Z,10.33
2022-08-16T08:23:00.584Z,9.90
2022-08-16T08:25:54.537Z,10.57
2022-08-16T08:28:19.952Z,9.60
2022-08-16T08:30:51.075Z,10.57
2022-08-16T08:33:28.929Z,10.27
2022-08-16T08:35:57.709Z,9.37
2022-08-16T08:38:44.260Z,10.50
2022-08-16T08:41:15.175Z,10.47
2022-08-16T08:43:42.913Z,10.80
2022-08-16T08:46:17.754Z,11.07
2022-08-16T08:48:46.358Z,10.30
2022-08-16T08:51:27.719Z,10.47
2022-08-16T08:54:06.843Z,11.03
2022-08-16T08:56:37.669Z,10.07
2022-08-16T08:59:19.873Z,9.30
2022-08-16T09:01:56.523Z,10.40
2022-08-16T09:04:26.012Z,11.30
2022-08-16T09:06:53.799Z,12.13
2022-08-16T09:09:21.353Z,10.43
2022-08-16T09:11:53.456Z,10.77
2022-08-16T09:14:31.499Z,11.05
2022-08-16T09:17:03.286Z,9.60
2022-08-16T09:19:40.789Z,9.77
2022-08-16T09:22:19.978Z,8.38
2022-08-16T09:24:53.555Z,9.45
2022-08-16T09:27:25.348Z,8.00
2022-08-16T09:30:00.041Z,8.05
2022-08-16T09:32:30.470Z,6.65
2022-08-16T09:34:58.810Z,6.05
2022-08-16T09:37:29.212Z,5.50
2022-08-16T09:39:59.682Z,6.97
2022-08-16T09:42:28.857Z,5.30
2022-08-16T09:45:12.407Z,5.05
2022-08-16T09:47:57.224Z,4.82
2022-08-16T09:50:37.003Z,5.43
2022-08-16T09:53:19.056Z,4.13
2022-08-16T09:55:50.050Z,4.53
2022-08-16T09:58:41.727Z,4.60
2022-08-16T10:01:06.388Z,4.05
2022-08-16T10:03:35.298Z,4.18
2022-08-16T10:06:02.015Z,4.10
2022-08-16T10:08:28.599Z,4.35
2022-08-16T10:11:14.042Z,3.85
2022-08-16T10:13:43.702Z,3.80
2022-08-16T10:19:01.866Z,4.40
2022-08-16T10:21:29.317Z,4.00
2022-08-16T10:23:58.828Z,4.00
2022-08-16T10:27:19.265Z,5.28
2022-08-16T10:29:12.542Z,3.92
2022-08-16T10:31:53.811Z,3.85
2022-08-16T10:34:31.258Z,3.78
2022-08-16T10:37:00.785Z,4.00
2022-08-16T10:39:40.608Z,4.13
2022-08-16T10:42:09.256Z,3.85
2022-08-16T10:44:36.387Z,4.45
2022-08-16T10:47:05.801Z,4.43
2022-08-16T10:49:32.833Z,4.78
2022-08-16T10:52:02.587Z,4.50
2022-08-16T10:55:40.959Z,4.38
2022-08-16T10:57:43.209Z,4.35
2022-08-16T11:00:21.127Z,4.72
2022-08-16T11:02:57.955Z,4.90
2022-08-16T11:08:35.916Z,4.82
2022-08-16T11:11:10.591Z,4.63
2022-08-16T11:19:20.309Z,4.60
2022-08-16T11:24:44.655Z,4.22
2022-08-16T11:27:23.937Z,4.85
2022-08-16T11:30:00.033Z,4.00
2022-08-16T11:32:31.442Z,5.05
2022-08-16T11:35:10.872Z,4.40
2022-08-16T11:40:32.475Z,4.72
2022-08-16T11:43:01.373Z,4.28
2022-08-16T11:45:31.533Z,3.58
2022-08-16T11:48:01.645Z,3.67
2022-08-16T11:50:28.805Z,3.45
2022-08-16T11:52:55.465Z,3.35
2022-08-16T11:55:23.664Z,3.90
2022-08-16T11:57:51.556Z,3.97
2022-08-16T12:00:50.228Z,3.88
2022-08-16T12:03:11.668Z,3.90
2022-08-16T12:05:40.429Z,3.75
2022-08-16T12:08:08.975Z,3.83
2022-08-16T12:10:38.897Z,3.58
2022-08-16T12:13:07.255Z,7.18
2022-08-16T12:15:37.913Z,3.80
2022-08-16T12:18:06.792Z,3.80
2022-08-16T12:20:38.724Z,3.40
2022-08-16T12:23:06.786Z,3.72
2022-08-16T12:25:35.319Z,3.78
2022-08-16T12:28:04.281Z,3.63
2022-08-16T12:30:38.544Z,3.92
2022-08-16T12:33:07.685Z,4.45
2022-08-16T12:35:36.484Z,4.72
2022-08-16T12:38:35.783Z,6.28
2022-08-16T12:40:57.121Z,3.90
2022-08-16T12:43:25.250Z,3.60
2022-08-16T12:45:55.252Z,4.03
2022-08-16T12:48:44.319Z,3.13
2022-08-16T12:51:19.899Z,3.80
2022-08-16T12:53:53.421Z,3.47
2022-08-16T12:56:25.399Z,3.47
2022-08-16T12:58:53.230Z,3.35
2022-08-16T13:01:34.113Z,3.95
2022-08-16T13:04:11.958Z,4.00
2022-08-16T13:06:48.507Z,3.53
2022-08-16T13:09:23.072Z,4.00
2022-08-16T13:12:15.778Z,3.70
2022-08-16T13:14:44.680Z,4.30
2022-08-16T13:17:18.803Z,3.85
2022-08-16T13:22:33.934Z,3.83
2022-08-16T13:25:00.832Z,3.40
2022-08-16T13:28:03.171Z,4.20
2022-08-16T13:30:35.357Z,5.80
2022-08-16T13:33:01.171Z,3.83
2022-08-16T13:35:34.546Z,4.20
2022-08-16T13:38:01.678Z,3.90
2022-08-16T13:40:30.213Z,3.92
2022-08-16T13:42:57.028Z,4.03
2022-08-16T13:45:23.670Z,4.00
2022-08-16T13:47:52.931Z,4.28
2022-08-16T13:50:31.255Z,3.95
2022-08-16T13:53:07.292Z,3.72
2022-08-16T13:55:34.636Z,3.72
2022-08-16T13:58:36.282Z,4.22
2022-08-16T14:00:52.693Z,4.20
2022-08-16T14:03:21.517Z,4.68
2022-08-16T14:05:52.569Z,3.60
2022-08-16T14:08:21.814Z,3.80
2022-08-16T14:10:52.157Z,3.92
2022-08-16T14:13:21.185Z,4.22
2022-08-16T14:15:48.656Z,4.68
2022-08-16T14:18:17.586Z,4.32
2022-08-16T14:20:48.423Z,3.90
2022-08-16T14:23:15.740Z,3.72
2022-08-16T14:25:42.744Z,3.65
2022-08-16T14:28:20.501Z,3.88
2022-08-16T14:30:50.645Z,3.97
2022-08-16T14:33:18.284Z,3.70
2022-08-16T14:35:49.398Z,3.47
2022-08-16T14:38:19.075Z,3.70
2022-08-16T14:40:55.179Z,3.83
2022-08-16T14:43:22.974Z,3.88
2022-08-16T14:45:50.418Z,4.00
2022-08-16T14:48:23.047Z,3.60
2022-08-16T14:50:52.518Z,4.70
2022-08-16T14:53:19.129Z,4.35
2022-08-16T14:55:46.084Z,3.88
2022-08-16T14:58:19.580Z,3.92
2022-08-16T15:00:50.463Z,4.00
2022-08-16T15:03:21.701Z,3.83
2022-08-16T15:05:49.701Z,3.75
2022-08-16T15:08:20.785Z,3.90
2022-08-16T15:10:47.902Z,4.38
2022-08-16T15:13:15.326Z,3.33
2022-08-16T15:15:43.391Z,3.70
2022-08-16T15:18:12.073Z,3.70
2022-08-16T15:20:41.037Z,3.80
2022-08-16T15:23:09.124Z,3.67
2022-08-16T15:25:41.527Z,3.50
2022-08-16T15:28:23.395Z,4.00
2022-08-16T15:31:00.332Z,3.72
2022-08-16T15:33:30.025Z,3.13
2022-08-16T15:35:59.891Z,3.42
2022-08-16T15:38:55.029Z,3.60
2022-08-16T15:41:38.070Z,3.85
2022-08-16T15:44:10.436Z,3.58
2022-08-16T15:46:56.371Z,3.78
2022-08-16T15:49:37.273Z,4.13
2022-08-16T15:52:24.994Z,3.83
2022-08-16T15:54:57.284Z,3.85
2022-08-16T15:57:26.100Z,3.70
2022-08-16T15:59:57.753Z,3.75
2022-08-16T16:02:31.753Z,3.80
2022-08-16T16:05:07.077Z,3.83
2022-08-16T16:07:40.676Z,4.20
2022-08-16T16:10:22.977Z,3.95
2022-08-16T16:12:57.970Z,3.85
2022-08-16T16:15:30.238Z,3.50
2022-08-16T16:17:57.742Z,4.15
2022-08-16T16:20:27.960Z,3.88
2022-08-16T16:22:59.557Z,4.40
2022-08-16T16:25:27.374Z,3.90
2022-08-16T16:27:59.711Z,4.05
2022-08-16T16:30:37.613Z,4.13
2022-08-16T16:33:15.484Z,4.05
2022-08-16T16:35:48.117Z,3.95
2022-08-16T16:38:29.956Z,4.30
2022-08-16T16:41:02.469Z,3.80
2022-08-16T16:43:31.675Z,3.72
2022-08-16T16:45:59.117Z,3.75
2022-08-16T16:48:29.704Z,4.32
2022-08-16T16:51:08.690Z,4.10
2022-08-16T16:53:41.928Z,4.57
2022-08-16T16:56:19.563Z,3.65
2022-08-16T16:58:57.109Z,3.60
2022-08-16T17:01:56.633Z,3.55
2022-08-16T17:04:31.943Z,4.10
2022-08-16T17:07:01.417Z,3.80
2022-08-16T17:09:28.419Z,3.80
2022-08-16T17:11:56.586Z,3.97
2022-08-16T17:14:33.359Z,4.13
2022-08-16T17:17:04.088Z,3.88
2022-08-16T17:19:31.677Z,3.78
2022-08-16T17:21:59.149Z,3.78
2022-08-16T17:24:31.962Z,4.72
2022-08-16T17:27:07.596Z,4.63
2022-08-16T17:29:35.010Z,4.25
2022-08-16T17:32:33.625Z,4.70
2022-08-16T17:35:01.751Z,4.78
2022-08-16T17:37:42.508Z,5.38
2022-08-16T17:40:25.409Z,4.95
2022-08-16T17:43:05.441Z,5.22
2022-08-16T17:45:33.145Z,5.65
2022-08-16T17:48:00.799Z,4.90
2022-08-16T17:50:28.917Z,5.35
2022-08-16T17:52:57.218Z,5.30
2022-08-16T17:55:27.314Z,5.30
2022-08-16T17:57:54.033Z,5.90
2022-08-16T18:00:21.892Z,5.63
2022-08-16T18:02:50.220Z,6.20
2022-08-16T18:05:18.217Z,5.82
2022-08-16T18:07:45.131Z,5.80
2022-08-16T18:10:12.207Z,7.03
2022-08-16T18:12:55.150Z,5.90
2022-08-16T18:15:24.109Z,6.07
2022-08-16T18:17:53.067Z,6.30
2022-08-16T18:20:45.402Z,6.28
2022-08-16T18:23:19.198Z,6.85
2022-08-16T18:25:53.867Z,7.65
2022-08-16T18:28:21.221Z,7.07
2022-08-16T18:30:51.624Z,7.20
2022-08-16T18:33:21.431Z,8.23
2022-08-16T18:35:48.522Z,7.72
2022-08-16T18:38:15.376Z,7.93
2022-08-16T18:40:42.993Z,9.27
2022-08-16T18:43:13.773Z,8.55
2022-08-16T18:45:42.882Z,7.47
2022-08-16T18:48:11.341Z,7.78
2022-08-16T18:50:59.650Z,7.95
2022-08-16T18:53:28.564Z,9.40
2022-08-16T18:55:58.208Z,9.85
2022-08-16T18:58:25.975Z,8.93
2022-08-16T19:00:56.485Z,9.70
2022-08-16T19:03:27.758Z,8.35
2022-08-16T19:06:11.283Z,9.02
2022-08-16T19:08:40.238Z,10.00
2022-08-16T19:11:09.205Z,11.73
2022-08-16T19:13:36.261Z,10.43
2022-08-16T19:16:04.104Z,10.85
2022-08-16T19:18:36.674Z,10.43
2022-08-16T19:21:05.161Z,10.00
2022-08-16T19:23:34.467Z,11.27
2022-08-16T19:26:06.796Z,12.60
2022-08-16T19:28:59.673Z,10.87
2022-08-16T19:31:33.368Z,10.97
2022-08-16T19:34:00.840Z,12.83
2022-08-16T19:36:35.837Z,11.03
2022-08-16T19:39:09.386Z,10.20
2022-08-16T19:41:38.633Z,11.03
2022-08-16T19:44:05.895Z,12.20
2022-08-16T19:46:32.648Z,13.33
2022-08-16T19:48:59.826Z,12.47
2022-08-16T19:51:26.584Z,11.70
2022-08-16T19:53:53.257Z,13.97
2022-08-16T19:56:22.231Z,11.63
2022-08-16T19:59:16.413Z,11.77
2022-08-16T20:01:41.668Z,12.00
2022-08-16T20:04:11.810Z,11.90
2022-08-16T20:06:38.992Z,11.67
2022-08-16T20:09:06.433Z,11.00
2022-08-16T20:11:34.118Z,12.77
2022-08-16T20:14:00.722Z,13.37
2022-08-16T20:16:27.334Z,12.83
2022-08-16T20:18:53.944Z,12.13
2022-08-16T20:21:20.643Z,12.67
2022-08-16T20:23:47.260Z,12.17
2022-08-16T20:26:13.896Z,13.80
2022-08-16T20:28:54.144Z,13.17
2022-08-16T20:31:22.870Z,12.53
2022-08-16T20:33:50.181Z,11.63
2022-08-16T20:36:17.088Z,11.43
2022-08-16T20:38:46.727Z,13.47
2022-08-16T20:41:13.911Z,11.97
2022-08-16T20:43:40.707Z,12.07
2022-08-16T20:46:07.555Z,14.53
2022-08-16T20:48:34.168Z,11.97
2022-08-16T20:51:00.774Z,13.03
2022-08-16T20:53:27.382Z,14.17
2022-08-16T20:55:54.252Z,12.40
2022-08-16T20:58:20.839Z,11.77
2022-08-16T21:00:47.642Z,12.60
2022-08-16T21:03:14.441Z,14.07
2022-08-16T21:05:41.218Z,13.77
2022-08-16T21:08:52.636Z,11.97
2022-08-16T21:10:56.425Z,11.53
2022-08-16T21:13:30.551Z,12.03
2022-08-16T21:15:58.421Z,11.80
2022-08-16T21:18:25.525Z,12.27
2022-08-16T21:20:52.791Z,11.63
2022-08-16T21:23:19.475Z,12.20
2022-08-16T21:25:51.217Z,12.10
2022-08-16T21:28:40.070Z,11.50
2022-08-16T21:31:09.486Z,12.40
2022-08-16T21:33:36.393Z,12.37
2022-08-16T21:36:03.273Z,12.63
2022-08-16T21:38:31.111Z,10.87
2022-08-16T21:40:59.285Z,12.80
2022-08-16T21:43:28.570Z,13.73
2022-08-16T21:45:55.808Z,12.93
2022-08-16T21:48:34.165Z,15.10
2022-08-16T21:51:09.739Z,12.77
2022-08-16T21:53:37.719Z,12.00
2022-08-16T21:56:06.178Z,12.87
2022-08-16T21:58:33.237Z,14.97
2022-08-16T22:01:01.278Z,14.03
2022-08-16T22:03:32.650Z,13.07
2022-08-16T22:06:14.132Z,12.70
2022-08-16T22:08:49.643Z,13.40
2022-08-16T22:11:23.030Z,12.60
2022-08-16T22:13:57.298Z,12.57
2022-08-16T22:16:26.073Z,13.33
2022-08-16T22:18:52.790Z,13.20
2022-08-16T22:21:19.986Z,12.63
2022-08-16T22:23:57.105Z,13.77
2022-08-16T22:26:29.126Z,12.73
2022-08-16T22:29:02.094Z,13.57
2022-08-16T22:31:29.151Z,13.10
2022-08-16T22:33:56.680Z,13.83
2022-08-16T22:36:23.694Z,13.77
2022-08-16T22:38:59.406Z,13.90
2022-08-16T22:41:28.308Z,15.47
2022-08-16T22:43:55.012Z,16.57
2022-08-16T22:46:21.669Z,14.30
2022-08-16T22:48:50.136Z,15.83
2022-08-16T22:51:18.362Z,15.77
2022-08-16T22:53:45.074Z,15.03
2022-08-16T22:56:11.893Z,16.33
2022-08-16T22:58:39.354Z,15.47
2022-08-16T23:01:07.446Z,16.57
2022-08-16T23:03:35.114Z,15.83
2022-08-16T23:06:02.196Z,16.07
2022-08-16T23:08:38.268Z,15.33
2022-08-16T23:11:12.213Z,16.63
2022-08-16T23:13:51.474Z,15.03
2022-08-16T23:16:23.373Z,15.93
2022-08-16T23:18:59.739Z,15.30
2022-08-16T23:21:26.619Z,15.07
2022-08-16T23:23:53.899Z,15.30
2022-08-16T23:26:44.673Z,15.67
2022-08-16T23:29:07.544Z,16.30
2022-08-16T23:31:47.758Z,17.03
2022-08-16T23:34:14.589Z,16.13
2022-08-16T23:36:41.237Z,14.83
2022-08-16T23:39:08.077Z,15.03
2022-08-16T23:41:34.850Z,16.00
2022-08-16T23:44:01.942Z,17.37
2022-08-16T23:46:49.263Z,16.57
2022-08-16T23:49:59.064Z,16.73
2022-08-16T23:52:09.808Z,15.33
2022-08-16T23:54:36.610Z,16.03
2022-08-16T23:57:03.709Z,15.97
2022-08-16T23:59:30.377Z,15.17
